sensor_id;sensor_type;location;lat;lon;timestamp;P1;durP1;ratioP1;P2;durP2;ratioP2
64459;SDS011;50828;53.756;21.140;2023-03-01T00:02:56;23.00;;;9.80;;
64459;SDS011;50828;53.756;21.140;2023-03-01T00:08:04;26.80;;;8.80;;
64459;SDS011;50828;53.756;21.140;2023-03-01T00:13:13;24.20;;;9.40;;
64459;SDS011;50828;53.756;21.140;2023-03-01T00:18:21;23.20;;;9.50;;
64459;SDS011;50828;53.756;21.140;2023-03-01T00:23:29;28.20;;;9.30;;
64459;SDS011;50828;53.756;21.140;2023-03-01T00:28:39;27.70;;;10.10;;
64459;SDS011;50828;53.756;21.140;2023-03-01T00:33:48;32.40;;;12.20;;
64459;SDS011;50828;53.756;21.140;2023-03-01T00:38:58;35.10;;;12.80;;
64459;SDS011;50828;53.756;21.140;2023-03-01T00:44:07;32.70;;;12.40;;
64459;SDS011;50828;53.756;21.140;2023-03-01T00:49:16;38.30;;;12.40;;
64459;SDS011;50828;53.756;21.140;2023-03-01T00:54:24;27.10;;;11.30;;
64459;SDS011;50828;53.756;21.140;2023-03-01T00:59:32;22.80;;;9.10;;
64459;SDS011;50828;53.756;21.140;2023-03-01T01:04:41;25.70;;;9.80;;
64459;SDS011;50828;53.756;21.140;2023-03-01T01:09:49;31.30;;;9.40;;
64459;SDS011;50828;53.756;21.140;2023-03-01T01:14:57;24.60;;;9.00;;
64459;SDS011;50828;53.756;21.140;2023-03-01T01:20:05;25.30;;;9.30;;
64459;SDS011;50828;53.756;21.140;2023-03-01T01:25:13;22.00;;;9.50;;
64459;SDS011;50828;53.756;21.140;2023-03-01T01:30:22;20.90;;;9.00;;
64459;SDS011;50828;53.756;21.140;2023-03-01T01:35:30;20.20;;;8.70;;
64459;SDS011;50828;53.756;21.140;2023-03-01T01:40:44;24.90;;;9.00;;
64459;SDS011;50828;53.756;21.140;2023-03-01T01:45:52;18.20;;;7.80;;
64459;SDS011;50828;53.756;21.140;2023-03-01T01:51:05;20.30;;;9.10;;
64459;SDS011;50828;53.756;21.140;2023-03-01T01:56:15;27.40;;;10.20;;
64459;SDS011;50828;53.756;21.140;2023-03-01T02:01:23;25.20;;;9.00;;
64459;SDS011;50828;53.756;21.140;2023-03-01T02:06:33;21.90;;;10.10;;
64459;SDS011;50828;53.756;21.140;2023-03-01T02:11:45;26.40;;;10.60;;
64459;SDS011;50828;53.756;21.140;2023-03-01T02:16:54;22.50;;;9.60;;
64459;SDS011;50828;53.756;21.140;2023-03-01T02:22:03;24.90;;;10.10;;
64459;SDS011;50828;53.756;21.140;2023-03-01T02:27:20;27.00;;;10.20;;
64459;SDS011;50828;53.756;21.140;2023-03-01T02:32:34;23.00;;;11.00;;
64459;SDS011;50828;53.756;21.140;2023-03-01T02:37:43;25.60;;;10.50;;
64459;SDS011;50828;53.756;21.140;2023-03-01T02:42:53;26.80;;;10.90;;
64459;SDS011;50828;53.756;21.140;2023-03-01T02:48:03;22.40;;;10.50;;
64459;SDS011;50828;53.756;21.140;2023-03-01T02:53:12;20.50;;;9.10;;
64459;SDS011;50828;53.756;21.140;2023-03-01T02:58:29;24.80;;;9.60;;
64459;SDS011;50828;53.756;21.140;2023-03-01T03:03:46;22.80;;;9.80;;
64459;SDS011;50828;53.756;21.140;2023-03-01T03:08:55;25.30;;;9.20;;
64459;SDS011;50828;53.756;21.140;2023-03-01T03:14:03;26.30;;;10.50;;
64459;SDS011;50828;53.756;21.140;2023-03-01T03:19:19;27.40;;;10.10;;
64459;SDS011;50828;53.756;21.140;2023-03-01T03:24:27;22.00;;;9.40;;
64459;SDS011;50828;53.756;21.140;2023-03-01T03:29:43;27.30;;;10.80;;
64459;SDS011;50828;53.756;21.140;2023-03-01T03:34:51;23.40;;;10.10;;
64459;SDS011;50828;53.756;21.140;2023-03-01T03:40:00;26.90;;;10.30;;
64459;SDS011;50828;53.756;21.140;2023-03-01T03:45:19;27.00;;;10.80;;
64459;SDS011;50828;53.756;21.140;2023-03-01T03:50:30;22.60;;;9.80;;
64459;SDS011;50828;53.756;21.140;2023-03-01T03:55:38;27.80;;;10.70;;
64459;SDS011;50828;53.756;21.140;2023-03-01T04:00:50;22.20;;;10.20;;
64459;SDS011;50828;53.756;21.140;2023-03-01T04:05:59;19.50;;;9.10;;
64459;SDS011;50828;53.756;21.140;2023-03-01T04:11:08;21.70;;;10.10;;
64459;SDS011;50828;53.756;21.140;2023-03-01T04:16:33;24.40;;;9.70;;
64459;SDS011;50828;53.756;21.140;2023-03-01T04:21:41;24.70;;;9.40;;
64459;SDS011;50828;53.756;21.140;2023-03-01T04:26:50;19.50;;;8.90;;
64459;SDS011;50828;53.756;21.140;2023-03-01T04:31:57;23.90;;;9.90;;
64459;SDS011;50828;53.756;21.140;2023-03-01T04:37:09;26.90;;;9.30;;
64459;SDS011;50828;53.756;21.140;2023-03-01T04:42:17;23.90;;;9.70;;
64459;SDS011;50828;53.756;21.140;2023-03-01T04:47:26;24.50;;;9.60;;
64459;SDS011;50828;53.756;21.140;2023-03-01T04:52:35;26.60;;;9.80;;
64459;SDS011;50828;53.756;21.140;2023-03-01T04:57:43;16.70;;;9.10;;
64459;SDS011;50828;53.756;21.140;2023-03-01T05:02:52;23.00;;;9.20;;
64459;SDS011;50828;53.756;21.140;2023-03-01T05:08:01;20.20;;;8.90;;
64459;SDS011;50828;53.756;21.140;2023-03-01T05:13:11;20.30;;;9.40;;
64459;SDS011;50828;53.756;21.140;2023-03-01T05:18:26;21.00;;;10.10;;
64459;SDS011;50828;53.756;21.140;2023-03-01T05:23:36;25.30;;;9.30;;
64459;SDS011;50828;53.756;21.140;2023-03-01T05:28:44;21.70;;;8.50;;
64459;SDS011;50828;53.756;21.140;2023-03-01T05:33:53;20.80;;;8.80;;
64459;SDS011;50828;53.756;21.140;2023-03-01T05:39:01;19.70;;;9.60;;
64459;SDS011;50828;53.756;21.140;2023-03-01T05:44:10;22.10;;;10.00;;
64459;SDS011;50828;53.756;21.140;2023-03-01T05:49:17;23.60;;;10.70;;
64459;SDS011;50828;53.756;21.140;2023-03-01T05:54:28;19.60;;;9.10;;
64459;SDS011;50828;53.756;21.140;2023-03-01T05:59:37;21.50;;;8.90;;
64459;SDS011;50828;53.756;21.140;2023-03-01T06:04:44;19.70;;;8.30;;
64459;SDS011;50828;53.756;21.140;2023-03-01T06:09:52;19.80;;;8.90;;
64459;SDS011;50828;53.756;21.140;2023-03-01T06:15:01;16.00;;;8.00;;
64459;SDS011;50828;53.756;21.140;2023-03-01T06:20:13;16.20;;;7.50;;
64459;SDS011;50828;53.756;21.140;2023-03-01T06:25:23;20.90;;;8.40;;
64459;SDS011;50828;53.756;21.140;2023-03-01T06:30:33;21.30;;;7.80;;
64459;SDS011;50828;53.756;21.140;2023-03-01T06:35:41;16.80;;;7.40;;
64459;SDS011;50828;53.756;21.140;2023-03-01T06:40:53;17.70;;;8.40;;
64459;SDS011;50828;53.756;21.140;2023-03-01T06:46:02;14.10;;;7.40;;
64459;SDS011;50828;53.756;21.140;2023-03-01T06:51:12;18.10;;;7.80;;
64459;SDS011;50828;53.756;21.140;2023-03-01T06:56:20;16.50;;;7.30;;
64459;SDS011;50828;53.756;21.140;2023-03-01T07:01:29;12.30;;;6.10;;
64459;SDS011;50828;53.756;21.140;2023-03-01T07:06:37;12.30;;;5.70;;
64459;SDS011;50828;53.756;21.140;2023-03-01T07:11:46;13.60;;;5.90;;
64459;SDS011;50828;53.756;21.140;2023-03-01T07:16:55;11.40;;;5.20;;
64459;SDS011;50828;53.756;21.140;2023-03-01T07:22:03;11.90;;;6.40;;
64459;SDS011;50828;53.756;21.140;2023-03-01T07:27:13;12.30;;;5.30;;
64459;SDS011;50828;53.756;21.140;2023-03-01T07:32:22;13.10;;;6.00;;
64459;SDS011;50828;53.756;21.140;2023-03-01T07:37:30;17.00;;;6.60;;
64459;SDS011;50828;53.756;21.140;2023-03-01T07:42:39;24.20;;;10.20;;
64459;SDS011;50828;53.756;21.140;2023-03-01T07:47:46;20.90;;;9.60;;
64459;SDS011;50828;53.756;21.140;2023-03-01T07:52:55;21.90;;;10.50;;
64459;SDS011;50828;53.756;21.140;2023-03-01T07:58:02;18.50;;;8.30;;
64459;SDS011;50828;53.756;21.140;2023-03-01T08:03:11;18.20;;;8.40;;
64459;SDS011;50828;53.756;21.140;2023-03-01T08:08:18;14.00;;;7.00;;
64459;SDS011;50828;53.756;21.140;2023-03-01T08:13:25;16.30;;;7.40;;
64459;SDS011;50828;53.756;21.140;2023-03-01T08:18:34;15.00;;;6.80;;
64459;SDS011;50828;53.756;21.140;2023-03-01T08:23:42;16.80;;;6.90;;
64459;SDS011;50828;53.756;21.140;2023-03-01T08:28:51;18.80;;;7.40;;
64459;SDS011;50828;53.756;21.140;2023-03-01T08:33:59;14.90;;;6.90;;
64459;SDS011;50828;53.756;21.140;2023-03-01T08:39:10;17.30;;;7.70;;
64459;SDS011;50828;53.756;21.140;2023-03-01T08:44:21;21.30;;;7.50;;
64459;SDS011;50828;53.756;21.140;2023-03-01T08:49:30;20.00;;;7.70;;
64459;SDS011;50828;53.756;21.140;2023-03-01T08:54:39;18.10;;;7.60;;
64459;SDS011;50828;53.756;21.140;2023-03-01T08:59:47;20.30;;;8.80;;
64459;SDS011;50828;53.756;21.140;2023-03-01T09:04:55;21.30;;;8.00;;
64459;SDS011;50828;53.756;21.140;2023-03-01T09:10:03;15.90;;;7.70;;
64459;SDS011;50828;53.756;21.140;2023-03-01T09:15:11;15.50;;;7.40;;
64459;SDS011;50828;53.756;21.140;2023-03-01T09:20:19;16.30;;;8.20;;
64459;SDS011;50828;53.756;21.140;2023-03-01T09:25:27;23.60;;;9.60;;
64459;SDS011;50828;53.756;21.140;2023-03-01T09:30:35;17.30;;;8.50;;
64459;SDS011;50828;53.756;21.140;2023-03-01T09:35:43;23.80;;;11.40;;
64459;SDS011;50828;53.756;21.140;2023-03-01T09:40:51;21.00;;;9.80;;
64459;SDS011;50828;53.756;21.140;2023-03-01T09:46:00;20.00;;;8.70;;
64459;SDS011;50828;53.756;21.140;2023-03-01T09:51:15;18.30;;;8.60;;
64459;SDS011;50828;53.756;21.140;2023-03-01T09:56:28;25.10;;;10.50;;
64459;SDS011;50828;53.756;21.140;2023-03-01T10:01:40;28.70;;;10.10;;
64459;SDS011;50828;53.756;21.140;2023-03-01T10:07:05;30.50;;;11.90;;
64459;SDS011;50828;53.756;21.140;2023-03-01T10:12:22;24.20;;;10.50;;
64459;SDS011;50828;53.756;21.140;2023-03-01T10:17:34;25.20;;;10.00;;
64459;SDS011;50828;53.756;21.140;2023-03-01T10:22:47;21.70;;;9.50;;
64459;SDS011;50828;53.756;21.140;2023-03-01T10:27:59;26.50;;;9.40;;
64459;SDS011;50828;53.756;21.140;2023-03-01T10:33:17;25.10;;;10.40;;
64459;SDS011;50828;53.756;21.140;2023-03-01T10:38:30;26.60;;;10.90;;
64459;SDS011;50828;53.756;21.140;2023-03-01T10:43:54;25.10;;;10.80;;
64459;SDS011;50828;53.756;21.140;2023-03-01T10:49:07;21.10;;;9.50;;
64459;SDS011;50828;53.756;21.140;2023-03-01T10:54:22;26.70;;;11.70;;
64459;SDS011;50828;53.756;21.140;2023-03-01T10:59:33;24.20;;;10.20;;
64459;SDS011;50828;53.756;21.140;2023-03-01T11:04:43;25.00;;;10.60;;
64459;SDS011;50828;53.756;21.140;2023-03-01T11:10:15;29.00;;;11.80;;
64459;SDS011;50828;53.756;21.140;2023-03-01T11:15:25;25.60;;;11.00;;
64459;SDS011;50828;53.756;21.140;2023-03-01T11:20:35;23.80;;;10.30;;
64459;SDS011;50828;53.756;21.140;2023-03-01T11:25:46;24.70;;;11.50;;
64459;SDS011;50828;53.756;21.140;2023-03-01T11:31:01;24.60;;;10.30;;
64459;SDS011;50828;53.756;21.140;2023-03-01T11:36:16;21.40;;;10.00;;
64459;SDS011;50828;53.756;21.140;2023-03-01T11:41:28;29.60;;;10.30;;
64459;SDS011;50828;53.756;21.140;2023-03-01T11:46:46;26.80;;;10.40;;
64459;SDS011;50828;53.756;21.140;2023-03-01T11:57:29;21.90;;;10.30;;
64459;SDS011;50828;53.756;21.140;2023-03-01T12:02:52;20.90;;;9.70;;
64459;SDS011;50828;53.756;21.140;2023-03-01T12:08:19;22.20;;;9.40;;
64459;SDS011;50828;53.756;21.140;2023-03-01T12:13:42;22.10;;;9.70;;
64459;SDS011;50828;53.756;21.140;2023-03-01T12:19:18;21.80;;;10.00;;
64459;SDS011;50828;53.756;21.140;2023-03-01T12:24:41;27.00;;;11.60;;
64459;SDS011;50828;53.756;21.140;2023-03-01T12:30:02;23.40;;;11.00;;
64459;SDS011;50828;53.756;21.140;2023-03-01T12:35:52;24.60;;;10.20;;
64459;SDS011;50828;53.756;21.140;2023-03-01T12:41:14;23.60;;;10.00;;
64459;SDS011;50828;53.756;21.140;2023-03-01T12:46:40;25.50;;;11.20;;
64459;SDS011;50828;53.756;21.140;2023-03-01T12:51:59;26.60;;;10.10;;
64459;SDS011;50828;53.756;21.140;2023-03-01T12:57:17;24.90;;;10.10;;
64459;SDS011;50828;53.756;21.140;2023-03-01T13:02:35;23.60;;;10.40;;
64459;SDS011;50828;53.756;21.140;2023-03-01T13:07:52;33.60;;;13.90;;
64459;SDS011;50828;53.756;21.140;2023-03-01T13:13:14;28.30;;;12.50;;
64459;SDS011;50828;53.756;21.140;2023-03-01T13:18:31;31.70;;;13.80;;
64459;SDS011;50828;53.756;21.140;2023-03-01T13:34:06;22.90;;;10.50;;
64459;SDS011;50828;53.756;21.140;2023-03-01T13:39:48;25.40;;;10.90;;
64459;SDS011;50828;53.756;21.140;2023-03-01T13:44:56;28.50;;;11.60;;
64459;SDS011;50828;53.756;21.140;2023-03-01T13:50:06;24.60;;;11.10;;
64459;SDS011;50828;53.756;21.140;2023-03-01T13:55:23;26.30;;;12.00;;
64459;SDS011;50828;53.756;21.140;2023-03-01T14:00:36;23.60;;;11.20;;
64459;SDS011;50828;53.756;21.140;2023-03-01T14:05:57;25.80;;;11.00;;
64459;SDS011;50828;53.756;21.140;2023-03-01T14:11:24;32.10;;;12.70;;
64459;SDS011;50828;53.756;21.140;2023-03-01T14:16:52;36.80;;;14.80;;
64459;SDS011;50828;53.756;21.140;2023-03-01T14:22:13;30.30;;;12.70;;
64459;SDS011;50828;53.756;21.140;2023-03-01T14:27:28;33.10;;;13.80;;
64459;SDS011;50828;53.756;21.140;2023-03-01T14:37:45;31.00;;;12.20;;
64459;SDS011;50828;53.756;21.140;2023-03-01T14:42:54;34.10;;;13.80;;
64459;SDS011;50828;53.756;21.140;2023-03-01T14:48:05;31.90;;;13.00;;
64459;SDS011;50828;53.756;21.140;2023-03-01T14:53:16;33.20;;;13.40;;
64459;SDS011;50828;53.756;21.140;2023-03-01T14:58:27;31.90;;;13.80;;
64459;SDS011;50828;53.756;21.140;2023-03-01T15:03:38;31.60;;;13.40;;
64459;SDS011;50828;53.756;21.140;2023-03-01T15:08:49;29.80;;;14.60;;
64459;SDS011;50828;53.756;21.140;2023-03-01T15:13:58;34.80;;;15.20;;
64459;SDS011;50828;53.756;21.140;2023-03-01T15:19:07;36.90;;;15.00;;
64459;SDS011;50828;53.756;21.140;2023-03-01T15:24:24;34.20;;;15.20;;
64459;SDS011;50828;53.756;21.140;2023-03-01T15:29:32;32.60;;;14.70;;
64459;SDS011;50828;53.756;21.140;2023-03-01T15:34:45;31.20;;;14.40;;
64459;SDS011;50828;53.756;21.140;2023-03-01T15:39:54;34.40;;;15.50;;
64459;SDS011;50828;53.756;21.140;2023-03-01T15:45:10;31.40;;;14.80;;
64459;SDS011;50828;53.756;21.140;2023-03-01T15:50:30;31.70;;;13.90;;
64459;SDS011;50828;53.756;21.140;2023-03-01T15:55:45;34.80;;;14.00;;
64459;SDS011;50828;53.756;21.140;2023-03-01T16:00:55;36.10;;;15.50;;
64459;SDS011;50828;53.756;21.140;2023-03-01T16:06:07;31.20;;;14.40;;
64459;SDS011;50828;53.756;21.140;2023-03-01T16:11:18;34.30;;;15.70;;
64459;SDS011;50828;53.756;21.140;2023-03-01T16:16:27;33.10;;;16.00;;
64459;SDS011;50828;53.756;21.140;2023-03-01T16:21:36;37.00;;;15.80;;
64459;SDS011;50828;53.756;21.140;2023-03-01T16:26:45;33.00;;;14.20;;
64459;SDS011;50828;53.756;21.140;2023-03-01T16:31:54;28.20;;;13.30;;
64459;SDS011;50828;53.756;21.140;2023-03-01T16:37:03;30.80;;;13.70;;
64459;SDS011;50828;53.756;21.140;2023-03-01T16:42:15;29.50;;;12.80;;
64459;SDS011;50828;53.756;21.140;2023-03-01T16:47:24;37.60;;;15.90;;
64459;SDS011;50828;53.756;21.140;2023-03-01T16:52:33;44.10;;;18.20;;
64459;SDS011;50828;53.756;21.140;2023-03-01T16:57:42;48.00;;;18.70;;
64459;SDS011;50828;53.756;21.140;2023-03-01T17:02:51;39.10;;;18.20;;
64459;SDS011;50828;53.756;21.140;2023-03-01T17:07:59;45.60;;;19.00;;
64459;SDS011;50828;53.756;21.140;2023-03-01T17:13:08;31.20;;;14.30;;
64459;SDS011;50828;53.756;21.140;2023-03-01T17:18:17;34.70;;;14.20;;
64459;SDS011;50828;53.756;21.140;2023-03-01T17:23:24;46.70;;;17.40;;
64459;SDS011;50828;53.756;21.140;2023-03-01T17:28:33;56.30;;;19.40;;
64459;SDS011;50828;53.756;21.140;2023-03-01T17:33:42;45.20;;;17.10;;
64459;SDS011;50828;53.756;21.140;2023-03-01T17:38:50;45.30;;;17.40;;
64459;SDS011;50828;53.756;21.140;2023-03-01T17:43:59;46.70;;;17.10;;
64459;SDS011;50828;53.756;21.140;2023-03-01T17:49:07;57.30;;;19.30;;
64459;SDS011;50828;53.756;21.140;2023-03-01T17:54:15;51.50;;;20.00;;
64459;SDS011;50828;53.756;21.140;2023-03-01T17:59:24;71.80;;;25.70;;
64459;SDS011;50828;53.756;21.140;2023-03-01T18:04:36;71.30;;;26.50;;
64459;SDS011;50828;53.756;21.140;2023-03-01T18:09:45;67.30;;;26.20;;
64459;SDS011;50828;53.756;21.140;2023-03-01T18:14:52;59.70;;;23.40;;
64459;SDS011;50828;53.756;21.140;2023-03-01T18:20:05;55.30;;;23.30;;
64459;SDS011;50828;53.756;21.140;2023-03-01T18:25:15;55.20;;;23.20;;
64459;SDS011;50828;53.756;21.140;2023-03-01T18:30:22;50.00;;;20.60;;
64459;SDS011;50828;53.756;21.140;2023-03-01T18:35:30;43.00;;;19.50;;
64459;SDS011;50828;53.756;21.140;2023-03-01T18:40:40;41.20;;;18.90;;
64459;SDS011;50828;53.756;21.140;2023-03-01T18:45:54;41.20;;;17.80;;
64459;SDS011;50828;53.756;21.140;2023-03-01T18:51:13;37.30;;;16.40;;
64459;SDS011;50828;53.756;21.140;2023-03-01T18:56:21;39.70;;;15.70;;
64459;SDS011;50828;53.756;21.140;2023-03-01T19:01:30;34.40;;;14.40;;
64459;SDS011;50828;53.756;21.140;2023-03-01T19:06:41;37.00;;;15.50;;
64459;SDS011;50828;53.756;21.140;2023-03-01T19:11:49;41.60;;;18.80;;
64459;SDS011;50828;53.756;21.140;2023-03-01T19:17:01;36.80;;;16.70;;
64459;SDS011;50828;53.756;21.140;2023-03-01T19:22:11;34.80;;;16.40;;
64459;SDS011;50828;53.756;21.140;2023-03-01T19:27:20;32.30;;;14.20;;
64459;SDS011;50828;53.756;21.140;2023-03-01T19:32:28;30.80;;;13.50;;
64459;SDS011;50828;53.756;21.140;2023-03-01T19:37:37;26.30;;;11.70;;
64459;SDS011;50828;53.756;21.140;2023-03-01T19:42:45;24.00;;;11.90;;
64459;SDS011;50828;53.756;21.140;2023-03-01T19:47:54;24.00;;;10.90;;
64459;SDS011;50828;53.756;21.140;2023-03-01T19:53:02;27.70;;;12.40;;
64459;SDS011;50828;53.756;21.140;2023-03-01T19:58:10;28.20;;;11.60;;
64459;SDS011;50828;53.756;21.140;2023-03-01T20:03:18;24.40;;;12.20;;
64459;SDS011;50828;53.756;21.140;2023-03-01T20:08:25;23.50;;;10.70;;
64459;SDS011;50828;53.756;21.140;2023-03-01T20:13:36;24.90;;;10.80;;
64459;SDS011;50828;53.756;21.140;2023-03-01T20:18:45;25.20;;;11.80;;
64459;SDS011;50828;53.756;21.140;2023-03-01T20:23:52;23.90;;;10.10;;
64459;SDS011;50828;53.756;21.140;2023-03-01T20:29:00;23.20;;;11.00;;
64459;SDS011;50828;53.756;21.140;2023-03-01T20:34:09;23.20;;;11.40;;
64459;SDS011;50828;53.756;21.140;2023-03-01T20:39:18;30.30;;;13.00;;
64459;SDS011;50828;53.756;21.140;2023-03-01T20:44:27;27.00;;;11.80;;
64459;SDS011;50828;53.756;21.140;2023-03-01T20:49:36;26.90;;;12.40;;
64459;SDS011;50828;53.756;21.140;2023-03-01T20:54:44;27.50;;;12.60;;
64459;SDS011;50828;53.756;21.140;2023-03-01T20:59:52;25.50;;;12.00;;
64459;SDS011;50828;53.756;21.140;2023-03-01T21:05:01;25.50;;;12.40;;
64459;SDS011;50828;53.756;21.140;2023-03-01T21:10:09;28.20;;;12.50;;
64459;SDS011;50828;53.756;21.140;2023-03-01T21:15:18;26.50;;;11.70;;
64459;SDS011;50828;53.756;21.140;2023-03-01T21:20:33;28.90;;;12.20;;
64459;SDS011;50828;53.756;21.140;2023-03-01T21:25:46;25.10;;;11.80;;
64459;SDS011;50828;53.756;21.140;2023-03-01T21:31:04;31.90;;;12.90;;
64459;SDS011;50828;53.756;21.140;2023-03-01T21:36:14;23.90;;;10.90;;
64459;SDS011;50828;53.756;21.140;2023-03-01T21:41:23;27.70;;;12.90;;
64459;SDS011;50828;53.756;21.140;2023-03-01T21:46:32;24.50;;;11.60;;
64459;SDS011;50828;53.756;21.140;2023-03-01T21:51:42;25.00;;;11.70;;
64459;SDS011;50828;53.756;21.140;2023-03-01T21:56:49;28.90;;;12.90;;
64459;SDS011;50828;53.756;21.140;2023-03-01T22:01:58;28.50;;;13.20;;
64459;SDS011;50828;53.756;21.140;2023-03-01T22:07:06;30.40;;;13.10;;
64459;SDS011;50828;53.756;21.140;2023-03-01T22:12:15;31.20;;;13.90;;
64459;SDS011;50828;53.756;21.140;2023-03-01T22:17:23;31.80;;;13.80;;
64459;SDS011;50828;53.756;21.140;2023-03-01T22:22:30;27.40;;;12.20;;
64459;SDS011;50828;53.756;21.140;2023-03-01T22:27:38;37.90;;;14.10;;
64459;SDS011;50828;53.756;21.140;2023-03-01T22:32:46;34.40;;;14.50;;
64459;SDS011;50828;53.756;21.140;2023-03-01T22:37:55;37.20;;;13.60;;
64459;SDS011;50828;53.756;21.140;2023-03-01T22:43:03;32.10;;;13.20;;
64459;SDS011;50828;53.756;21.140;2023-03-01T22:48:12;24.60;;;11.30;;
64459;SDS011;50828;53.756;21.140;2023-03-01T22:53:20;25.60;;;10.40;;
64459;SDS011;50828;53.756;21.140;2023-03-01T22:58:28;22.90;;;11.20;;
64459;SDS011;50828;53.756;21.140;2023-03-01T23:03:36;22.00;;;10.10;;
64459;SDS011;50828;53.756;21.140;2023-03-01T23:08:47;19.40;;;9.10;;
64459;SDS011;50828;53.756;21.140;2023-03-01T23:13:56;14.30;;;9.00;;
64459;SDS011;50828;53.756;21.140;2023-03-01T23:19:06;17.40;;;8.60;;
64459;SDS011;50828;53.756;21.140;2023-03-01T23:24:13;31.80;;;11.80;;
64459;SDS011;50828;53.756;21.140;2023-03-01T23:29:22;22.20;;;9.60;;
64459;SDS011;50828;53.756;21.140;2023-03-01T23:34:29;20.30;;;7.60;;
64459;SDS011;50828;53.756;21.140;2023-03-01T23:39:38;17.90;;;8.30;;
64459;SDS011;50828;53.756;21.140;2023-03-01T23:44:47;12.00;;;6.00;;
64459;SDS011;50828;53.756;21.140;2023-03-01T23:49:55;9.70;;;5.60;;
64459;SDS011;50828;53.756;21.140;2023-03-01T23:55:04;9.50;;;4.70;;
